Time;durP1;ratioP1;P1;durP2;ratioP2;P2;SDS_P1;SDS_P2;PMS_P1;PMS_P2;Temp;Humidity;BMP_temperature;BMP_pressure;BME280_temperature;BME280_humidity;BME280_pressure;Samples;Min_cycle;Max_cycle;Signal;HPM_P1;HPM_P2
2024/04/15 00:03:42;;;;;;;2.60;1.55;;;23.60;42.40;;;;;;11137799;26;20528;-41
2024/04/15 00:08:46;;;;;;;3.47;1.75;;;23.60;42.50;;;;;;11138057;26;19996;-42
2024/04/15 00:13:49;;;;;;;2.83;1.48;;;23.80;42.00;;;;;;11137894;26;20012;-42
2024/04/15 00:18:55;;;;;;;3.10;1.80;;;23.60;42.30;;;;;;11137763;26;20473;-43
2024/04/15 00:23:58;;;;;;;2.45;1.50;;;23.70;42.20;;;;;;11138071;26;20015;-43
2024/04/15 00:29:01;;;;;;;3.05;1.80;;;23.60;42.30;;;;;;11137612;26;20424;-41
2024/04/15 00:34:07;;;;;;;3.05;1.90;;;23.60;42.30;;;;;;11137005;26;20004;-41
2024/04/15 00:39:11;;;;;;;3.08;1.52;;;23.40;42.70;;;;;;11137821;26;20012;-42
2024/04/15 00:44:14;;;;;;;3.97;1.80;;;23.50;42.60;;;;;;11137116;26;20008;-42
2024/04/15 00:49:20;;;;;;;3.58;1.85;;;23.40;42.80;;;;;;11137187;26;20000;-42
2024/04/15 00:54:23;;;;;;;3.20;2.00;;;23.30;42.90;;;;;;11136604;26;20000;-41
2024/04/15 00:59:26;;;;;;;2.80;1.58;;;23.40;42.70;;;;;;11136543;26;20012;-42
2024/04/15 01:04:32;;;;;;;2.55;1.50;;;23.20;43.10;;;;;;11136980;26;20004;-42
2024/04/15 01:09:35;;;;;;;2.80;1.92;;;23.40;43.10;;;;;;11136509;26;20015;-43
2024/04/15 01:14:39;;;;;;;2.72;1.88;;;23.40;42.90;;;;;;11135015;26;20000;-41
2024/04/15 01:19:44;;;;;;;2.70;1.83;;;23.30;42.90;;;;;;11135404;26;20143;-42
2024/04/15 01:24:50;;;;;;;2.85;2.00;;;23.20;43.00;;;;;;11136231;26;20014;-42
2024/04/15 01:29:54;;;;;;;2.70;1.92;;;23.10;43.20;;;;;;11135807;26;20012;-41
2024/04/15 01:34:57;;;;;;;2.35;1.67;;;23.20;43.20;;;;;;11135013;26;20010;-42
2024/04/15 01:40:03;;;;;;;3.53;1.90;;;23.10;43.40;;;;;;11135823;26;20462;-41
2024/04/15 01:45:07;;;;;;;2.38;1.77;;;23.10;43.20;;;;;;11135095;26;19996;-42
2024/04/15 01:50:10;;;;;;;2.53;1.65;;;23.00;43.50;;;;;;11134957;26;20012;-45
2024/04/15 01:55:16;;;;;;;3.05;1.90;;;23.10;44.00;;;;;;11134386;26;20082;-43
2024/04/15 02:00:19;;;;;;;3.08;1.80;;;23.00;43.50;;;;;;11134466;26;20008;-42
2024/04/15 02:05:23;;;;;;;2.95;1.88;;;22.90;43.60;;;;;;11134099;26;20014;-42
2024/04/15 02:10:28;;;;;;;3.45;1.95;;;22.90;43.70;;;;;;11134075;26;20008;-42
2024/04/15 02:15:32;;;;;;;2.40;1.75;;;22.90;43.70;;;;;;11134241;26;20015;-41
2024/04/15 02:20:35;;;;;;;2.60;2.03;;;22.90;43.60;;;;;;11133409;26;20026;-42
2024/04/15 02:25:41;;;;;;;3.17;1.75;;;22.80;43.80;;;;;;11133500;26;20001;-46
2024/04/15 02:30:44;;;;;;;2.88;1.80;;;22.80;43.70;;;;;;11139950;26;20015;-42
2024/04/15 02:35:48;;;;;;;3.20;2.08;;;22.80;43.70;;;;;;11140187;26;20000;-43
2024/04/15 02:40:54;;;;;;;3.15;2.00;;;22.70;43.80;;;;;;11139954;26;20000;-42
2024/04/15 02:45:58;;;;;;;3.45;1.98;;;22.80;43.80;;;;;;11140044;26;20000;-42
2024/04/15 02:51:02;;;;;;;2.63;2.03;;;22.60;43.90;;;;;;11140313;26;20012;-41
2024/04/15 02:56:08;;;;;;;2.65;1.80;;;22.80;43.90;;;;;;11140326;26;20015;-42
2024/04/15 03:01:11;;;;;;;3.13;2.00;;;22.70;43.60;;;;;;11139874;26;20001;-42
2024/04/15 03:06:15;;;;;;;3.22;2.08;;;22.60;44.10;;;;;;11139641;26;20008;-42
2024/04/15 03:11:21;;;;;;;2.85;1.90;;;22.40;44.50;;;;;;11139366;26;20012;-43
2024/04/15 03:16:24;;;;;;;2.22;1.75;;;22.20;45.80;;;;;;11139647;26;20099;-41
2024/04/15 03:21:28;;;;;;;2.95;2.00;;;22.10;45.80;;;;;;11139214;26;20028;-42
2024/04/15 03:26:33;;;;;;;3.45;2.08;;;22.20;45.90;;;;;;11139193;26;20036;-42
2024/04/15 03:31:37;;;;;;;2.53;2.00;;;22.30;45.70;;;;;;11138568;26;20457;-42
2024/04/15 03:36:40;;;;;;;2.50;1.92;;;22.40;45.50;;;;;;11138495;26;20342;-42
2024/04/15 03:41:46;;;;;;;3.47;1.92;;;22.50;45.40;;;;;;11137351;26;19997;-42
2024/04/15 03:46:49;;;;;;;2.42;1.80;;;22.30;45.80;;;;;;11138395;26;19996;-42
2024/04/15 03:51:52;;;;;;;3.42;2.33;;;22.30;45.80;;;;;;11138795;26;20468;-42
2024/04/15 03:56:58;;;;;;;2.30;2.10;;;22.50;45.80;;;;;;11137995;26;20010;-42
2024/04/15 04:02:01;;;;;;;2.78;2.05;;;22.50;45.50;;;;;;11138154;26;20018;-42
2024/04/15 04:07:04;;;;;;;3.13;2.30;;;22.60;45.50;;;;;;11137691;26;20027;-41
2024/04/15 04:12:10;;;;;;;2.58;1.77;;;22.60;45.60;;;;;;11137689;26;20012;-42
2024/04/15 04:17:14;;;;;;;3.15;1.83;;;22.60;45.70;;;;;;11137577;26;20472;-42
2024/04/15 04:22:17;;;;;;;2.38;1.65;;;22.70;45.40;;;;;;11137400;26;20022;-42
2024/04/15 04:27:23;;;;;;;2.53;1.98;;;22.60;45.50;;;;;;11135563;26;20000;-42
2024/04/15 04:32:26;;;;;;;2.30;1.83;;;22.80;45.40;;;;;;11135643;26;20016;-41
2024/04/15 04:37:29;;;;;;;2.72;1.90;;;22.70;45.40;;;;;;11136447;26;20311;-41
2024/04/15 04:42:35;;;;;;;2.20;1.88;;;22.80;45.30;;;;;;11136801;26;20012;-42
2024/04/15 04:47:38;;;;;;;2.00;1.67;;;23.30;45.00;;;;;;11136680;26;20004;-42
2024/04/15 04:52:42;;;;;;;2.80;2.08;;;23.20;46.60;;;;;;11136342;26;20454;-42
2024/04/15 04:57:48;;;;;;;3.45;2.05;;;23.20;45.80;;;;;;11136337;26;20010;-42
2024/04/15 05:02:51;;;;;;;5.10;1.92;;;23.80;46.10;;;;;;11136620;26;20014;-42
2024/04/15 05:07:54;;;;;;;3.50;1.77;;;24.00;47.80;;;;;;11135907;26;20349;-42
2024/04/15 05:13:00;;;;;;;3.05;2.00;;;23.90;48.10;;;;;;11135988;26;20008;-41
2024/04/15 05:18:03;;;;;;;7.18;2.17;;;24.10;48.10;;;;;;11135440;26;20396;-41
2024/04/15 05:23:06;;;;;;;15.30;2.10;;;23.80;48.70;;;;;;11136129;26;20014;-41
2024/04/15 05:28:12;;;;;;;11.40;2.00;;;24.10;48.00;;;;;;11135553;26;20008;-42
2024/04/15 05:33:16;;;;;;;5.25;1.98;;;24.10;49.30;;;;;;11135119;26;20004;-44
2024/04/15 05:38:19;;;;;;;5.53;2.47;;;23.90;49.10;;;;;;11135291;26;20358;-42
2024/04/15 05:43:25;;;;;;;5.90;2.08;;;23.40;48.20;;;;;;11134492;26;20012;-42
2024/04/15 05:48:29;;;;;;;8.98;2.25;;;23.10;48.10;;;;;;11134726;26;20012;-42
2024/04/15 05:53:32;;;;;;;7.88;2.33;;;23.20;47.00;;;;;;11134240;26;20000;-41
2024/04/15 05:58:38;;;;;;;10.02;2.50;;;23.40;46.80;;;;;;11134332;26;20004;-43
2024/04/15 06:03:41;;;;;;;20.05;3.65;;;23.10;47.80;;;;;;11138429;26;20015;-43
2024/04/15 06:08:44;;;;;;;37.78;8.40;;;23.00;48.60;;;;;;11141350;26;20012;-42
2024/04/15 06:13:50;;;;;;;31.55;7.70;;;23.10;49.40;;;;;;11141511;26;20365;-41
2024/04/15 06:18:53;;;;;;;30.25;7.78;;;23.10;49.70;;;;;;11140991;26;20019;-41
2024/04/15 06:23:56;;;;;;;28.23;7.28;;;23.20;48.20;;;;;;11139951;26;20420;-41
2024/04/15 06:29:03;;;;;;;31.05;7.85;;;23.50;47.70;;;;;;11134600;26;20023;-44
2024/04/15 06:34:06;;;;;;;23.10;5.10;;;23.50;46.60;;;;;;11133587;26;20000;-45
2024/04/15 06:39:09;;;;;;;19.00;5.38;;;23.60;45.10;;;;;;11133524;26;20641;-42
2024/04/15 06:44:15;;;;;;;14.70;4.30;;;23.50;45.10;;;;;;11138782;26;20000;-41
2024/04/15 06:49:19;;;;;;;16.92;4.40;;;23.40;43.80;;;;;;11140185;26;20000;-41
2024/04/15 06:54:22;;;;;;;11.38;3.33;;;23.30;44.00;;;;;;11139733;26;20480;-42
2024/04/15 06:59:28;;;;;;;11.95;3.15;;;23.60;43.20;;;;;;11139799;26;20083;-42
2024/04/15 07:04:31;;;;;;;9.45;3.15;;;23.50;43.60;;;;;;11140239;26;20006;-41
2024/04/15 07:09:34;;;;;;;8.95;2.83;;;23.50;42.20;;;;;;11139710;26;20015;-43
2024/04/15 07:14:40;;;;;;;7.35;2.60;;;23.50;41.60;;;;;;11139582;26;20000;-42
2024/04/15 07:19:44;;;;;;;7.90;2.83;;;23.50;42.30;;;;;;11139233;26;19996;-42
2024/04/15 07:24:48;;;;;;;7.03;2.10;;;23.40;42.80;;;;;;11139594;26;20014;-42
2024/04/15 07:29:56;;;;;;;7.05;2.25;;;23.40;42.80;;;;;;11104890;26;20017;-42
2024/04/15 07:34:59;;;;;;;5.35;2.13;;;23.40;42.50;;;;;;11063801;26;20007;-41
2024/04/15 07:40:04;;;;;;;8.55;1.90;;;22.90;44.00;;;;;;11066748;26;20082;-41
2024/04/15 07:45:10;;;;;;;8.55;2.13;;;23.00;44.20;;;;;;11066159;26;20020;-42
2024/04/15 07:50:13;;;;;;;8.73;2.08;;;23.40;44.90;;;;;;11066279;26;20041;-41
2024/04/15 07:55:17;;;;;;;9.50;2.08;;;23.80;44.50;;;;;;11065557;26;20017;-42
2024/04/15 08:00:22;;;;;;;6.53;2.05;;;23.70;45.40;;;;;;11065786;26;20033;-42
2024/04/15 08:05:26;;;;;;;7.18;2.10;;;23.60;46.10;;;;;;11065624;26;20015;-44
2024/04/15 08:10:29;;;;;;;5.60;1.58;;;23.80;46.20;;;;;;11065502;26;20343;-44
2024/04/15 08:15:35;;;;;;;5.72;1.70;;;24.10;48.10;;;;;;11065733;26;20001;-41
2024/04/15 08:20:38;;;;;;;4.20;1.60;;;24.30;47.80;;;;;;11065120;26;20595;-41
2024/04/15 08:25:41;;;;;;;4.22;1.75;;;24.50;48.30;;;;;;11064238;26;20012;-45
2024/04/15 08:30:47;;;;;;;8.07;1.73;;;24.30;48.90;;;;;;11064763;26;20009;-42
2024/04/15 08:35:51;;;;;;;7.75;1.92;;;24.10;49.60;;;;;;11064796;26;20013;-41
2024/04/15 08:40:56;;;;;;;7.70;2.08;;;24.20;49.10;;;;;;11064586;26;20012;-42
2024/04/15 08:46:03;;;;;;;6.63;1.40;;;24.20;49.10;;;;;;11064577;26;20041;-42
2024/04/15 08:51:06;;;;;;;5.25;1.33;;;24.00;49.70;;;;;;11064453;26;20001;-42
2024/04/15 08:56:09;;;;;;;6.72;1.80;;;24.10;49.40;;;;;;11064120;26;20473;-41
2024/04/15 09:01:15;;;;;;;9.25;1.70;;;24.20;49.40;;;;;;11064276;26;20016;-45
2024/04/15 09:06:19;;;;;;;10.43;1.70;;;24.20;48.70;;;;;;11063909;26;20478;-43
2024/04/15 09:11:22;;;;;;;6.22;1.58;;;24.10;49.10;;;;;;11063920;26;20012;-41
2024/04/15 09:16:28;;;;;;;6.35;1.30;;;24.10;49.60;;;;;;11063486;26;19997;-43
2024/04/15 09:21:31;;;;;;;7.43;1.30;;;24.10;49.80;;;;;;11063666;26;20553;-42
2024/04/15 09:26:34;;;;;;;5.78;1.42;;;24.30;49.80;;;;;;11063599;26;20009;-42
2024/04/15 09:31:40;;;;;;;6.30;1.40;;;24.60;49.70;;;;;;11063058;26;19997;-43
2024/04/15 09:36:44;;;;;;;5.20;1.50;;;25.20;52.20;;;;;;11061554;26;20005;-41
2024/04/15 09:41:48;;;;;;;7.53;1.60;;;25.20;54.20;;;;;;11062911;26;20019;-42
2024/04/15 09:46:54;;;;;;;5.75;1.23;;;25.30;55.00;;;;;;11062630;26;20060;-41
2024/04/15 09:51:59;;;;;;;6.03;1.25;;;25.60;57.30;;;;;;11063066;26;20016;-47
2024/04/15 09:57:07;;;;;;;10.10;1.30;;;25.70;57.20;;;;;;11062361;26;20011;-41
2024/04/15 10:02:25;;;;;;;5.65;1.38;;;;;;;;;;11062411;26;20454;-44
2024/04/15 10:07:28;;;;;;;11.25;1.70;;;25.50;42.00;;;;;;11062703;26;20013;-41
2024/04/15 10:12:31;;;;;;;8.23;1.35;;;25.40;42.80;;;;;;11061895;26;20008;-42
2024/04/15 10:17:37;;;;;;;8.48;1.40;;;25.50;42.50;;;;;;11061661;26;20012;-43
2024/04/15 10:22:41;;;;;;;4.20;1.15;;;25.70;42.00;;;;;;11061766;26;20051;-41
2024/04/15 10:27:44;;;;;;;4.72;1.30;;;25.70;42.40;;;;;;11061341;26;20001;-43
2024/04/15 10:32:50;;;;;;;4.00;1.10;;;25.60;42.70;;;;;;11060860;26;20011;-42
2024/04/15 10:37:53;;;;;;;6.07;1.35;;;24.70;41.60;;;;;;11061258;26;20050;-41
2024/04/15 10:42:56;;;;;;;4.45;1.30;;;24.70;41.30;;;;;;11060923;26;20016;-43
2024/04/15 10:48:02;;;;;;;7.85;1.55;;;24.60;37.80;;;;;;11062187;26;20011;-41
2024/04/15 10:53:06;;;;;;;4.90;1.27;;;24.50;39.00;;;;;;11067614;26;20443;-43
2024/04/15 10:58:11;;;;;;;3.28;1.42;;;24.60;39.30;;;;;;11067427;26;20040;-41
2024/04/15 11:03:16;;;;;;;6.90;1.50;;;24.10;36.60;;;;;;11067552;26;20000;-41
2024/04/15 11:08:20;;;;;;;6.57;1.52;;;24.00;37.50;;;;;;11067162;26;20458;-41
2024/04/15 11:13:23;;;;;;;4.95;1.52;;;24.10;37.20;;;;;;11066995;26;20016;-42
2024/04/15 11:18:30;;;;;;;5.15;1.40;;;24.00;35.90;;;;;;11066895;26;20016;-41
2024/04/15 11:23:33;;;;;;;5.68;1.50;;;23.80;35.10;;;;;;11067249;26;20351;-42
2024/04/15 11:28:36;;;;;;;6.75;1.40;;;23.70;35.00;;;;;;11067182;26;20015;-43
2024/04/15 11:33:42;;;;;;;7.68;1.90;;;23.70;34.30;;;;;;11066189;26;20471;-41
2024/04/15 11:38:45;;;;;;;9.05;1.90;;;23.80;31.10;;;;;;11066041;26;20016;-41
2024/04/15 11:43:49;;;;;;;5.07;1.60;;;23.80;30.20;;;;;;11066647;26;20016;-41
2024/04/15 11:48:54;;;;;;;8.82;1.95;;;23.50;32.30;;;;;;11066527;26;20013;-42
2024/04/15 11:53:58;;;;;;;9.13;1.95;;;23.30;32.50;;;;;;11066229;26;20015;-41
2024/04/15 11:59:01;;;;;;;6.93;2.35;;;23.60;31.20;;;;;;11065105;26;20013;-41
2024/04/15 12:04:07;;;;;;;8.25;1.70;;;23.60;29.80;;;;;;11066361;26;20015;-42
2024/04/15 12:09:10;;;;;;;11.00;2.00;;;23.30;31.10;;;;;;11066011;26;20458;-41
2024/04/15 12:14:14;;;;;;;12.32;1.80;;;23.20;31.50;;;;;;11065876;26;20001;-41
2024/04/15 12:19:20;;;;;;;5.00;1.70;;;23.30;32.00;;;;;;11066276;26;20012;-42
2024/04/15 12:24:24;;;;;;;8.65;1.80;;;23.40;31.50;;;;;;11065967;26;20001;-42
2024/04/15 12:29:27;;;;;;;5.47;1.90;;;23.20;31.70;;;;;;11064034;26;20005;-41
2024/04/15 12:34:35;;;;;;;7.30;1.80;;;23.30;31.90;;;;;;11064632;26;20009;-41
2024/04/15 12:39:40;;;;;;;6.25;1.60;;;23.20;32.20;;;;;;11065591;26;20017;-41
2024/04/15 12:44:43;;;;;;;5.03;1.50;;;23.20;32.10;;;;;;11064888;26;20040;-41
2024/04/15 12:49:49;;;;;;;5.10;1.48;;;23.30;32.30;;;;;;11064968;26;20012;-41
2024/04/15 12:54:52;;;;;;;5.25;1.50;;;23.50;33.30;;;;;;11064576;26;20035;-42
2024/04/15 12:59:55;;;;;;;4.65;1.60;;;23.50;33.20;;;;;;11064562;26;20009;-42
2024/04/15 13:05:01;;;;;;;3.85;1.55;;;23.50;31.60;;;;;;11064768;26;20409;-41
2024/04/15 13:10:04;;;;;;;4.00;1.50;;;23.50;32.00;;;;;;11064094;26;20015;-45
2024/04/15 13:15:08;;;;;;;5.22;1.83;;;23.50;31.20;;;;;;11064215;26;20481;-42
2024/04/15 13:20:14;;;;;;;4.45;1.60;;;23.40;30.90;;;;;;11063938;26;20355;-42
2024/04/15 13:25:17;;;;;;;3.83;1.50;;;23.40;31.10;;;;;;11063814;26;20054;-41
2024/04/15 13:30:20;;;;;;;6.43;2.28;;;23.50;32.30;;;;;;11063403;26;20009;-41
2024/04/15 13:35:26;;;;;;;4.82;1.58;;;23.50;32.70;;;;;;11063624;26;20012;-44
2024/04/15 13:40:29;;;;;;;4.00;1.60;;;23.50;33.50;;;;;;11097991;26;20008;-42
2024/04/15 13:45:33;;;;;;;3.13;1.50;;;23.60;33.80;;;;;;11134749;26;19996;-43
2024/04/15 13:50:38;;;;;;;3.63;1.23;;;23.50;33.80;;;;;;11134795;26;20000;-44
2024/04/15 13:55:42;;;;;;;4.70;1.50;;;23.60;34.10;;;;;;11134818;26;20000;-41
2024/04/15 14:00:48;;;;;;;3.15;1.30;;;23.50;35.00;;;;;;11134941;26;20043;-42
2024/04/15 14:05:54;;;;;;;5.43;1.45;;;23.60;35.00;;;;;;11134863;26;19997;-42
2024/04/15 14:10:57;;;;;;;2.67;1.10;;;23.60;35.00;;;;;;11086019;26;20005;-42
2024/04/15 14:16:00;;;;;;;4.00;1.40;;;23.60;35.30;;;;;;11096420;26;20004;-42
2024/04/15 14:21:06;;;;;;;3.97;1.27;;;23.70;35.50;;;;;;11134033;26;20023;-42
2024/04/15 14:26:10;;;;;;;3.85;1.15;;;23.60;35.70;;;;;;11140062;26;20008;-42
2024/04/15 14:31:13;;;;;;;6.22;1.50;;;23.70;36.00;;;;;;11140566;26;20000;-43
2024/04/15 14:36:19;;;;;;;5.40;1.70;;;23.80;36.60;;;;;;11140933;26;20015;-44
2024/04/15 14:41:22;;;;;;;3.95;1.30;;;23.60;37.20;;;;;;11141075;26;20031;-45
2024/04/15 14:46:25;;;;;;;10.90;1.52;;;23.80;37.50;;;;;;11140538;26;19996;-42
2024/04/15 14:51:31;;;;;;;5.82;1.20;;;24.00;37.60;;;;;;11140702;26;20000;-41
2024/04/15 14:56:35;;;;;;;8.68;1.50;;;24.40;37.30;;;;;;11140267;26;20000;-41
2024/04/15 15:01:39;;;;;;;4.72;1.23;;;24.40;37.30;;;;;;11140446;26;20012;-42
2024/04/15 15:06:44;;;;;;;6.93;1.20;;;24.40;37.70;;;;;;11139889;26;20004;-42
2024/04/15 15:11:50;;;;;;;3.65;1.27;;;24.30;37.90;;;;;;11140079;26;20012;-41
2024/04/15 15:16:53;;;;;;;2.72;1.40;;;24.20;38.50;;;;;;11139579;26;20473;-44
2024/04/15 15:21:59;;;;;;;18.17;1.83;;;24.10;38.70;;;;;;11139728;26;20012;-42
2024/04/15 15:27:03;;;;;;;8.82;2.00;;;24.50;37.90;;;;;;11139425;26;20036;-43
2024/04/15 15:32:07;;;;;;;14.18;2.08;;;24.50;38.90;;;;;;11139145;26;20443;-43
2024/04/15 15:37:13;;;;;;;9.27;1.60;;;24.70;38.70;;;;;;11137706;26;20076;-41
2024/04/15 15:42:16;;;;;;;15.15;1.98;;;24.50;39.60;;;;;;11139205;26;20008;-43
2024/04/15 15:47:19;;;;;;;15.55;1.73;;;24.40;40.20;;;;;;11138813;26;20012;-43
2024/04/15 15:52:26;;;;;;;10.15;1.63;;;24.70;40.00;;;;;;11138612;26;20013;-41
2024/04/15 15:57:29;;;;;;;8.77;1.52;;;24.50;39.40;;;;;;11138591;26;20148;-42
2024/04/15 16:02:33;;;;;;;7.25;1.70;;;24.40;39.70;;;;;;11138261;26;20035;-41
2024/04/15 16:07:38;;;;;;;15.20;1.45;;;24.30;39.00;;;;;;11138283;26;20007;-42
2024/04/15 16:12:42;;;;;;;9.15;1.50;;;24.60;38.90;;;;;;11138135;26;20011;-43
2024/04/15 16:17:45;;;;;;;6.70;2.30;;;24.60;37.40;;;;;;11138293;26;20012;-43
2024/04/15 16:22:51;;;;;;;14.88;2.60;;;23.90;34.40;;;;;;11137969;26;20040;-42
2024/04/15 16:27:54;;;;;;;4.28;1.90;;;23.40;35.20;;;;;;11137710;26;20035;-45
2024/04/15 16:32:57;;;;;;;4.78;1.65;;;23.50;35.50;;;;;;11137085;26;20015;-42
2024/04/15 16:38:03;;;;;;;2.97;1.38;;;23.30;36.80;;;;;;11137476;26;20004;-43
2024/04/15 16:43:06;;;;;;;4.75;1.52;;;23.60;37.20;;;;;;11137348;26;20014;-45
2024/04/15 16:48:10;;;;;;;3.83;1.30;;;23.60;37.50;;;;;;11136135;26;20408;-42
2024/04/15 16:53:16;;;;;;;8.82;1.60;;;23.90;37.50;;;;;;11137607;26;20000;-42
2024/04/15 16:58:19;;;;;;;13.80;2.00;;;24.10;37.70;;;;;;11137411;26;20477;-42
2024/04/15 17:03:22;;;;;;;15.70;1.70;;;24.40;39.40;;;;;;11136042;26;20019;-41
2024/04/15 17:08:28;;;;;;;7.75;1.60;;;24.60;39.20;;;;;;11136398;26;20001;-42
2024/04/15 17:13:32;;;;;;;7.93;1.90;;;24.20;39.00;;;;;;11135156;26;20000;-42
2024/04/15 17:18:35;;;;;;;21.95;2.38;;;24.20;39.30;;;;;;11134907;26;20026;-43
2024/04/15 17:23:41;;;;;;;14.52;1.80;;;24.30;39.80;;;;;;11136367;26;20011;-42
2024/04/15 17:28:45;;;;;;;12.23;1.75;;;24.50;40.10;;;;;;11136044;26;20416;-42
2024/04/15 17:33:48;;;;;;;12.15;2.00;;;24.60;40.30;;;;;;11135143;26;20016;-41
2024/04/15 17:38:55;;;;;;;7.90;1.63;;;24.40;41.00;;;;;;11135583;26;20078;-45
2024/04/15 17:43:59;;;;;;;9.60;1.70;;;24.50;41.20;;;;;;11135468;26;20519;-42
2024/04/15 17:49:02;;;;;;;9.55;1.60;;;24.50;41.70;;;;;;11209180;26;19999;-42
2024/04/15 17:54:09;;;;;;;7.65;1.60;;;24.50;42.10;;;;;;11178813;26;20004;-43
2024/04/15 17:59:13;;;;;;;8.13;1.50;;;24.80;42.30;;;;;;11133503;26;20000;-43
2024/04/15 18:04:16;;;;;;;6.57;1.50;;;24.90;42.30;;;;;;11135061;26;20000;-42
2024/04/15 18:09:22;;;;;;;10.35;1.75;;;25.20;42.00;;;;;;11134672;26;20024;-43
2024/04/15 18:14:25;;;;;;;8.13;1.50;;;25.00;42.90;;;;;;11134658;26;20000;-44
2024/04/15 18:19:29;;;;;;;7.47;1.75;;;24.90;43.10;;;;;;11134113;26;20000;-44
2024/04/15 18:24:34;;;;;;;5.65;1.90;;;24.80;43.50;;;;;;11187236;26;20007;-43
2024/04/15 18:29:38;;;;;;;7.03;1.67;;;24.90;43.20;;;;;;11207208;26;20457;-43
2024/04/15 18:34:42;;;;;;;6.35;1.42;;;25.40;42.50;;;;;;11206865;26;20008;-47
2024/04/15 18:39:48;;;;;;;6.32;1.50;;;25.00;42.00;;;;;;11207442;26;20072;-42
2024/04/15 18:44:53;;;;;;;8.00;1.70;;;25.00;43.00;;;;;;11206617;26;20010;-43
2024/04/15 18:49:56;;;;;;;10.38;2.03;;;25.10;42.60;;;;;;11206586;26;20041;-43
2024/04/15 18:55:02;;;;;;;10.57;1.30;;;25.00;43.00;;;;;;11193024;26;20012;-45
2024/04/15 19:00:07;;;;;;;6.55;1.23;;;24.80;42.80;;;;;;11206323;26;20008;-43
2024/04/15 19:05:10;;;;;;;6.63;1.25;;;24.60;43.20;;;;;;11206439;26;20000;-43
2024/04/15 19:10:17;;;;;;;10.68;1.40;;;24.70;43.20;;;;;;11208607;26;20354;-48
2024/04/15 19:15:22;;;;;;;9.48;1.20;;;25.20;42.60;;;;;;11209978;26;20047;-46
2024/04/15 19:20:25;;;;;;;7.00;1.02;;;25.50;41.60;;;;;;11212563;26;20393;-43
2024/04/15 19:25:32;;;;;;;6.68;1.20;;;25.20;42.00;;;;;;11213345;26;20007;-43
2024/04/15 19:30:35;;;;;;;4.47;1.30;;;24.90;42.40;;;;;;11212383;26;20007;-44
2024/04/15 19:35:38;;;;;;;5.22;1.02;;;24.60;42.90;;;;;;11212243;26;20008;-45
2024/04/15 19:40:44;;;;;;;3.10;1.10;;;24.30;43.30;;;;;;11212602;26;20015;-42
2024/04/15 19:45:48;;;;;;;5.50;1.15;;;24.20;43.40;;;;;;11212208;26;19995;-43
2024/04/15 19:50:51;;;;;;;2.47;1.00;;;23.90;44.00;;;;;;11212189;26;20004;-46
2024/04/15 19:55:57;;;;;;;5.13;0.90;;;24.20;43.40;;;;;;11211744;26;19996;-43
2024/04/15 20:01:02;;;;;;;4.63;1.15;;;24.30;42.90;;;;;;11210319;26;20018;-43
2024/04/15 20:06:06;;;;;;;3.00;0.88;;;24.40;42.70;;;;;;11211651;26;19996;-45
2024/04/15 20:11:12;;;;;;;3.55;0.98;;;24.30;42.80;;;;;;11211355;26;20008;-42
2024/04/15 20:16:15;;;;;;;5.25;0.85;;;24.20;42.80;;;;;;11211500;26;20373;-42
2024/04/15 20:21:18;;;;;;;1.88;0.95;;;24.10;42.90;;;;;;11210029;26;20032;-42
2024/04/15 20:26:24;;;;;;;4.28;1.10;;;24.10;42.80;;;;;;11211048;26;20013;-45
2024/04/15 20:31:28;;;;;;;3.05;1.00;;;24.00;42.90;;;;;;11210655;26;20032;-45
2024/04/15 20:36:31;;;;;;;3.55;0.82;;;24.00;42.80;;;;;;11210469;26;19995;-42
2024/04/15 20:41:37;;;;;;;2.25;0.80;;;24.00;42.70;;;;;;11211049;26;20011;-42
2024/04/15 20:46:40;;;;;;;5.82;0.88;;;23.90;42.70;;;;;;11207272;26;20000;-43
2024/04/15 20:51:44;;;;;;;2.50;0.80;;;23.80;42.90;;;;;;11210310;26;20044;-45
2024/04/15 20:56:50;;;;;;;1.67;0.60;;;23.70;43.00;;;;;;11209799;26;20091;-42
2024/04/15 21:01:53;;;;;;;2.53;0.80;;;23.80;42.60;;;;;;11210038;26;20445;-41
2024/04/15 21:06:56;;;;;;;1.55;0.98;;;23.80;42.50;;;;;;11209640;26;20473;-42
2024/04/15 21:12:08;;;;;;;3.05;0.93;;;24.10;41.80;;;;;;11209643;26;20385;-42
2024/04/15 21:17:11;;;;;;;1.88;0.70;;;24.10;41.70;;;;;;11209709;26;20050;-43
2024/04/15 21:22:15;;;;;;;1.50;0.70;;;24.30;41.20;;;;;;11209326;26;19999;-42
2024/04/15 21:27:20;;;;;;;2.95;0.70;;;24.10;41.30;;;;;;11209038;26;20370;-41
2024/04/15 21:32:24;;;;;;;1.88;0.60;;;24.30;40.90;;;;;;11208613;26;19996;-42
2024/04/15 21:37:27;;;;;;;2.15;0.70;;;24.40;40.80;;;;;;11208668;26;20013;-43
2024/04/15 21:42:33;;;;;;;1.10;0.80;;;24.10;41.20;;;;;;11208392;26;19995;-43
2024/04/15 21:47:36;;;;;;;1.35;0.60;;;23.90;41.70;;;;;;11208376;26;20014;-42
2024/04/15 21:52:39;;;;;;;1.80;0.73;;;23.60;42.00;;;;;;11208449;26;20014;-42
2024/04/15 21:57:45;;;;;;;1.10;0.63;;;23.70;41.90;;;;;;11208172;26;20015;-42
2024/04/15 22:02:48;;;;;;;3.45;0.73;;;23.60;42.10;;;;;;11207968;26;20011;-42
2024/04/15 22:07:52;;;;;;;0.88;0.60;;;23.60;42.20;;;;;;11207789;26;20004;-45
2024/04/15 22:12:57;;;;;;;1.63;0.70;;;23.40;42.50;;;;;;11207471;26;19995;-43
2024/04/15 22:18:01;;;;;;;1.60;0.60;;;23.30;42.40;;;;;;11207887;26;20398;-44
2024/04/15 22:23:04;;;;;;;2.30;0.63;;;23.30;42.30;;;;;;11207522;26;20037;-42
2024/04/15 22:28:10;;;;;;;1.83;0.65;;;23.20;41.90;;;;;;11207234;26;19999;-46
2024/04/15 22:33:14;;;;;;;2.35;0.63;;;23.20;42.40;;;;;;11206687;26;20015;-44
2024/04/15 22:38:17;;;;;;;1.27;0.52;;;23.10;42.60;;;;;;11206547;26;20009;-42
2024/04/15 22:43:23;;;;;;;0.70;0.50;;;23.20;42.20;;;;;;11207645;26;20038;-42
2024/04/15 22:48:26;;;;;;;1.60;0.68;;;23.20;42.30;;;;;;11213806;26;20004;-42
2024/04/15 22:53:29;;;;;;;1.10;0.70;;;23.40;41.80;;;;;;11214098;26;20414;-42
2024/04/15 22:58:35;;;;;;;1.02;0.47;;;23.20;42.10;;;;;;11213297;26;20004;-42
2024/04/15 23:03:38;;;;;;;0.50;0.50;;;23.10;42.10;;;;;;11213350;26;20015;-43
2024/04/15 23:08:41;;;;;;;1.48;0.60;;;23.20;41.80;;;;;;11213209;26;20360;-42
2024/04/15 23:13:47;;;;;;;1.35;0.50;;;23.40;41.30;;;;;;11213130;26;20003;-41
2024/04/15 23:18:51;;;;;;;1.25;0.50;;;23.50;41.00;;;;;;11212910;26;20522;-44
2024/04/15 23:23:54;;;;;;;0.68;0.40;;;23.30;41.40;;;;;;11213159;26;20014;-42
2024/04/15 23:29:00;;;;;;;0.95;0.50;;;23.30;41.10;;;;;;11213071;26;20000;-42
2024/04/15 23:34:03;;;;;;;1.20;0.60;;;23.40;41.00;;;;;;11212214;26;20003;-41
2024/04/15 23:39:06;;;;;;;0.82;0.50;;;23.50;40.70;;;;;;11212380;26;19999;-42
2024/04/15 23:44:13;;;;;;;0.73;0.50;;;23.20;41.00;;;;;;11212100;26;20012;-41
2024/04/15 23:49:16;;;;;;;1.67;0.55;;;23.40;40.80;;;;;;11212014;26;20022;-42
2024/04/15 23:54:20;;;;;;;0.77;0.60;;;23.50;40.30;;;;;;11211414;26;20341;-42
2024/04/15 23:59:26;;;;;;;1.33;0.50;;;23.70;40.10;;;;;;11210561;26;20000;-42
